Time,TemperatureF,DewpointF,PressureIn,WindDirection,WindDirectionDegrees,WindSpeedMPH,WindSpeedGustMPH,Humidity,HourlyPrecipIn,Conditions,Clouds,dailyrainin,SoftwareType,DateUTC
2013-07-30 00:00:00,64.2,29.6,30.08,SSW,206,0.0,0.0,27,0.00,,FEW041,0.00,VWS V14.01,2013-07-30 04:00:00,
2013-07-30 00:01:00,64.2,29.6,30.08,SSW,206,0.0,0.0,27,0.00,,FEW041,0.00,VWS V14.01,2013-07-30 04:01:00,
2013-07-30 00:03:00,64.2,29.6,30.08,SSW,206,0.0,0.0,27,0.00,,FEW041,0.00,VWS V14.01,2013-07-30 04:03:00,
2013-07-30 00:07:00,64.2,29.6,30.08,SSW,206,0.0,0.0,27,0.00,,FEW041,0.00,VWS V14.01,2013-07-30 04:07:00,
2013-07-30 00:12:00,64.2,29.6,30.08,SSW,206,0.0,0.0,27,0.00,,FEW041,0.00,VWS V14.01,2013-07-30 04:12:00,
2013-07-30 00:17:00,64.2,29.6,30.08,SSW,206,0.0,0.0,27,0.00,,FEW041,0.00,VWS V14.01,2013-07-30 04:17:00,
2013-07-30 00:22:00,64.2,29.6,30.08,SSW,206,0.0,0.0,27,0.00,,FEW041,0.00,VWS V14.01,2013-07-30 04:22:00,
2013-07-30 00:27:00,64.2,29.6,30.08,SSW,206,0.0,0.0,27,0.00,,FEW041,0.00,VWS V14.01,2013-07-30 04:27:00,
2013-07-30 00:32:00,64.2,29.6,30.08,SSW,206,0.0,0.0,27,0.00,,FEW041,0.00,VWS V14.01,2013-07-30 04:32:00,
2013-07-30 00:37:00,64.2,29.6,30.08,SSW,206,0.0,0.0,27,0.00,,FEW041,0.00,VWS V14.01,2013-07-30 04:37:00,
2013-07-30 00:42:00,64.2,29.6,30.08,SSW,206,0.0,0.0,27,0.00,,FEW041,0.00,VWS V14.01,2013-07-30 04:42:00,
2013-07-30 00:47:00,64.2,29.6,30.08,SSW,206,0.0,0.0,27,0.00,,FEW041,0.00,VWS V14.01,2013-07-30 04:47:00,
2013-07-30 00:52:00,64.2,29.6,30.08,SSW,206,2.2,2.2,27,0.00,,FEW041,0.00,VWS V14.01,2013-07-30 04:52:00,
2013-07-30 00:57:00,64.2,29.6,30.08,NNW,346,2.2,2.2,27,0.00,,FEW041,0.00,VWS V14.01,2013-07-30 04:57:00,
2013-07-30 01:03:00,64.2,29.6,30.08,NNW,346,2.7,2.7,27,0.00,,FEW045,0.00,VWS V14.01,2013-07-30 05:03:00,
2013-07-30 01:08:00,64.2,29.6,30.08,NNW,346,0.0,0.0,27,0.00,,FEW045,0.00,VWS V14.01,2013-07-30 05:08:00,
2013-07-30 01:13:00,64.2,29.6,30.08,NNW,346,2.7,3.1,27,0.00,,FEW045,0.00,VWS V14.01,2013-07-30 05:13:00,
2013-07-30 01:18:00,64.2,29.6,30.08,NNW,346,3.1,3.1,27,0.00,,FEW045,0.00,VWS V14.01,2013-07-30 05:18:00,
2013-07-30 01:23:00,64.2,29.6,30.08,NNW,346,2.7,2.7,27,0.00,,FEW045,0.00,VWS V14.01,2013-07-30 05:23:00,
2013-07-30 01:28:00,64.2,29.6,30.08,NNW,346,2.7,2.7,27,0.00,,FEW045,0.00,VWS V14.01,2013-07-30 05:28:00,
2013-07-30 01:33:00,64.2,29.6,30.08,NNW,346,2.7,2.7,27,0.00,,FEW045,0.00,VWS V14.01,2013-07-30 05:33:00,
2013-07-30 01:38:00,64.2,29.6,30.08,NNW,346,2.7,2.7,27,0.00,,FEW045,0.00,VWS V14.01,2013-07-30 05:38:00,
2013-07-30 01:43:00,64.2,29.6,30.08,North,353,3.6,3.6,27,0.00,,FEW045,0.00,VWS V14.01,2013-07-30 05:43:00,
2013-07-30 01:49:00,64.2,29.6,30.08,North,353,3.1,3.1,27,0.00,,FEW045,0.00,VWS V14.01,2013-07-30 05:49:00,
2013-07-30 01:54:00,64.2,29.6,30.08,North,353,2.7,3.1,27,0.00,,FEW045,0.00,VWS V14.01,2013-07-30 05:54:00,
2013-07-30 01:59:00,64.2,29.6,30.08,North,353,2.7,2.7,27,0.00,,FEW045,0.00,VWS V14.01,2013-07-30 05:59:00,
2013-07-30 02:04:00,64.2,29.6,30.08,North,353,3.1,3.1,27,0.00,,SCT033,0.00,VWS V14.01,2013-07-30 06:04:00,
2013-07-30 02:09:00,64.2,29.6,30.08,North,353,2.7,2.7,27,0.00,,SCT033,0.00,VWS V14.01,2013-07-30 06:09:00,
2013-07-30 02:14:00,64.2,29.6,30.08,North,353,2.2,2.2,27,0.00,,SCT033,0.00,VWS V14.01,2013-07-30 06:14:00,
2013-07-30 02:19:00,64.2,29.6,30.08,North,353,2.2,2.2,27,0.00,,SCT033,0.00,VWS V14.01,2013-07-30 06:19:00,
2013-07-30 02:24:00,64.2,29.6,30.08,North,353,2.7,2.7,27,0.00,,SCT033,0.00,VWS V14.01,2013-07-30 06:24:00,
2013-07-30 02:29:00,64.2,29.6,30.08,North,353,3.1,3.1,27,0.00,,SCT033,0.00,VWS V14.01,2013-07-30 06:29:00,
2013-07-30 02:34:00,64.2,29.6,30.08,North,353,2.7,3.1,27,0.00,,SCT033,0.00,VWS V14.01,2013-07-30 06:34:00,
2013-07-30 02:40:00,64.2,29.6,30.08,North,353,2.2,2.2,27,0.00,,SCT033,0.00,VWS V14.01,2013-07-30 06:40:00,
2013-07-30 02:45:00,64.2,29.6,30.08,North,353,2.7,2.7,27,0.00,,SCT033,0.00,VWS V14.01,2013-07-30 06:45:00,
2013-07-30 02:50:00,64.2,29.6,30.08,North,353,2.7,2.7,27,0.00,,SCT033,0.00,VWS V14.01,2013-07-30 06:50:00,
2013-07-30 02:55:00,64.2,29.6,30.08,North,353,2.7,2.7,27,0.00,,SCT033,0.00,VWS V14.01,2013-07-30 06:55:00,
2013-07-30 03:00:00,64.2,29.6,30.08,North,353,2.7,2.7,27,0.00,,CLR,0.00,VWS V14.01,2013-07-30 07:00:00,
2013-07-30 03:05:00,64.2,29.6,30.08,North,353,2.2,2.2,27,0.00,,CLR,0.00,VWS V14.01,2013-07-30 07:05:00,
2013-07-30 03:10:00,64.2,29.6,30.08,North,353,3.1,3.1,27,0.00,,CLR,0.00,VWS V14.01,2013-07-30 07:10:00,
2013-07-30 03:15:00,64.2,29.6,30.08,North,353,2.2,2.2,27,0.00,,CLR,0.00,VWS V14.01,2013-07-30 07:15:00,
2013-07-30 03:21:00,64.2,29.6,30.08,North,353,3.1,3.1,27,0.00,,CLR,0.00,VWS V14.01,2013-07-30 07:21:00,
2013-07-30 03:26:00,64.2,29.6,30.08,North,353,3.1,3.1,27,0.00,,CLR,0.00,VWS V14.01,2013-07-30 07:26:00,
2013-07-30 03:31:00,64.2,29.6,30.08,North,353,3.1,3.1,27,0.00,,CLR,0.00,VWS V14.01,2013-07-30 07:31:00,
2013-07-30 03:36:00,64.2,29.6,30.08,North,353,3.1,3.1,27,0.00,,CLR,0.00,VWS V14.01,2013-07-30 07:36:00,
2013-07-30 03:41:00,64.2,29.6,30.08,North,353,2.7,2.7,27,0.00,,CLR,0.00,VWS V14.01,2013-07-30 07:41:00,
2013-07-30 03:46:00,64.2,29.6,30.08,North,353,2.2,2.7,27,0.00,,CLR,0.00,VWS V14.01,2013-07-30 07:46:00,
2013-07-30 03:51:00,64.2,29.6,30.08,North,353,3.1,3.1,27,0.00,,CLR,0.00,VWS V14.01,2013-07-30 07:51:00,
2013-07-30 03:56:00,64.2,29.6,30.08,North,353,3.1,3.1,27,0.00,,CLR,0.00,VWS V14.01,2013-07-30 07:56:00,
2013-07-30 04:01:00,64.2,29.6,30.08,North,353,3.1,3.1,27,0.00,,BKN034,0.00,VWS V14.01,2013-07-30 08:01:00,
2013-07-30 04:06:00,64.2,29.6,30.08,North,353,2.7,3.1,27,0.00,,BKN034,0.00,VWS V14.01,2013-07-30 08:06:00,
2013-07-30 04:12:00,64.2,29.6,30.08,North,353,3.6,3.6,27,0.00,,BKN034,0.00,VWS V14.01,2013-07-30 08:12:00,
2013-07-30 04:17:00,64.2,29.6,30.08,North,353,3.1,3.1,27,0.00,,BKN034,0.00,VWS V14.01,2013-07-30 08:17:00,
2013-07-30 04:22:00,64.2,29.6,30.08,North,353,3.6,3.6,27,0.00,,BKN034,0.00,VWS V14.01,2013-07-30 08:22:00,
2013-07-30 04:27:00,64.2,29.6,30.08,North,353,3.1,3.1,27,0.00,,BKN034,0.00,VWS V14.01,2013-07-30 08:27:00,
2013-07-30 04:32:00,64.2,29.6,30.08,North,353,3.1,3.1,27,0.00,,BKN034,0.00,VWS V14.01,2013-07-30 08:32:00,
2013-07-30 04:37:00,64.2,29.6,30.08,North,353,3.1,3.1,27,0.00,,BKN034,0.00,VWS V14.01,2013-07-30 08:37:00,
2013-07-30 04:42:00,64.2,29.6,30.08,North,353,2.2,3.1,27,0.00,,BKN034,0.00,VWS V14.01,2013-07-30 08:42:00,
2013-07-30 04:47:00,64.2,29.6,30.08,North,353,3.1,3.1,27,0.00,,BKN034,0.00,VWS V14.01,2013-07-30 08:47:00,
2013-07-30 04:52:00,64.2,29.6,30.08,North,353,2.2,2.2,27,0.00,,BKN034,0.00,VWS V14.01,2013-07-30 08:52:00,
2013-07-30 04:57:00,64.2,29.6,30.08,North,353,2.7,2.7,27,0.00,,BKN034,0.00,VWS V14.01,2013-07-30 08:57:00,
2013-07-30 05:02:00,64.2,29.6,30.08,North,353,3.1,3.1,27,0.00,,CLR,0.00,VWS V14.01,2013-07-30 09:02:00,
2013-07-30 05:08:00,64.2,29.6,30.08,North,353,2.7,2.7,27,0.00,,CLR,0.00,VWS V14.01,2013-07-30 09:08:00,
2013-07-30 05:13:00,64.2,29.6,30.08,North,353,2.7,2.7,27,0.00,,CLR,0.00,VWS V14.01,2013-07-30 09:13:00,
2013-07-30 05:18:00,64.2,29.6,30.08,North,353,3.6,3.6,27,0.00,,CLR,0.00,VWS V14.01,2013-07-30 09:18:00,
2013-07-30 05:23:00,64.2,29.6,30.08,North,353,3.1,3.1,27,0.00,,CLR,0.00,VWS V14.01,2013-07-30 09:23:00,
2013-07-30 05:28:00,64.2,29.6,30.08,North,353,3.6,3.6,27,0.00,,CLR,0.00,VWS V14.01,2013-07-30 09:28:00,
2013-07-30 05:33:00,64.2,29.6,30.08,North,353,3.6,3.6,27,0.00,,CLR,0.00,VWS V14.01,2013-07-30 09:33:00,
2013-07-30 05:38:00,64.2,29.6,30.08,North,353,3.1,3.1,27,0.00,,CLR,0.00,VWS V14.01,2013-07-30 09:38:00,
2013-07-30 05:43:00,64.2,29.6,30.08,North,353,2.2,2.7,27,0.00,,CLR,0.00,VWS V14.01,2013-07-30 09:43:00,
2013-07-30 05:48:00,64.2,29.6,30.08,North,353,0.0,0.0,27,0.00,,CLR,0.00,VWS V14.01,2013-07-30 09:48:00,
2013-07-30 05:54:00,64.2,29.6,30.08,North,353,2.2,2.2,27,0.00,,CLR,0.00,VWS V14.01,2013-07-30 09:54:00,
2013-07-30 05:59:00,64.2,29.6,30.08,North,353,0.0,2.2,27,0.00,,CLR,0.00,VWS V14.01,2013-07-30 09:59:00,
2013-07-30 06:04:00,64.2,29.6,30.08,North,353,2.7,2.7,27,0.00,,CLR,0.00,VWS V14.01,2013-07-30 10:04:00,
2013-07-30 06:09:00,64.2,29.6,30.08,North,353,2.7,2.7,27,0.00,,CLR,0.00,VWS V14.01,2013-07-30 10:09:00,
2013-07-30 06:14:00,64.2,29.6,30.08,North,353,2.7,2.7,27,0.00,,CLR,0.00,VWS V14.01,2013-07-30 10:14:00,
2013-07-30 06:19:00,64.2,29.6,30.08,North,353,0.0,3.1,27,0.00,,CLR,0.00,VWS V14.01,2013-07-30 10:19:00,
2013-07-30 06:24:00,61.3,25.2,30.08,North,353,2.7,2.7,25,0.00,,CLR,0.00,VWS V14.01,2013-07-30 10:24:00,
2013-07-30 06:29:00,61.3,25.2,30.08,North,353,2.2,2.2,25,0.00,,CLR,0.00,VWS V14.01,2013-07-30 10:29:00,
2013-07-30 06:34:00,61.3,25.2,30.08,North,353,0.0,0.0,25,0.00,,CLR,0.00,VWS V14.01,2013-07-30 10:34:00,
2013-07-30 06:40:00,61.3,25.2,30.08,North,353,0.0,0.0,25,0.00,,CLR,0.00,VWS V14.01,2013-07-30 10:40:00,
2013-07-30 06:45:00,61.3,25.2,30.08,North,353,0.0,0.0,25,0.00,,CLR,0.00,VWS V14.01,2013-07-30 10:45:00,
2013-07-30 06:50:00,61.3,25.2,30.08,North,353,2.7,2.7,25,0.00,,CLR,0.00,VWS V14.01,2013-07-30 10:50:00,
2013-07-30 06:55:00,61.3,25.2,30.08,North,353,0.0,0.0,25,0.00,,CLR,0.00,VWS V14.01,2013-07-30 10:55:00,
2013-07-30 07:00:00,61.3,25.2,30.08,North,353,2.2,2.2,25,0.00,,CLR,0.00,VWS V14.01,2013-07-30 11:00:00,
2013-07-30 07:05:00,61.3,25.2,30.11,North,353,0.0,0.0,25,0.00,,BKN026,0.00,VWS V14.01,2013-07-30 11:05:00,
2013-07-30 07:10:00,61.3,25.2,30.11,North,353,2.2,2.2,25,0.00,,BKN026,0.00,VWS V14.01,2013-07-30 11:10:00,
2013-07-30 07:15:00,61.7,26.5,30.11,North,353,2.2,2.2,26,0.00,,BKN026,0.00,VWS V14.01,2013-07-30 11:15:00,
2013-07-30 07:20:00,61.7,26.5,30.11,North,353,0.0,0.0,26,0.00,,BKN026,0.00,VWS V14.01,2013-07-30 11:20:00,
2013-07-30 07:25:00,61.7,26.5,30.08,North,353,0.0,0.0,26,0.00,,BKN026,0.00,VWS V14.01,2013-07-30 11:25:00,
2013-07-30 07:30:00,61.5,25.4,30.08,North,353,0.0,0.0,25,0.00,,BKN026,0.00,VWS V14.01,2013-07-30 11:30:00,
2013-07-30 07:35:00,61.5,27.2,30.11,North,353,0.0,0.0,27,0.00,,BKN026,0.00,VWS V14.01,2013-07-30 11:35:00,
2013-07-30 07:41:00,61.9,26.6,30.11,North,353,0.0,0.0,26,0.00,,BKN026,0.00,VWS V14.01,2013-07-30 11:41:00,
2013-07-30 07:46:00,61.9,26.6,30.11,North,353,0.0,0.0,26,0.00,,BKN026,0.00,VWS V14.01,2013-07-30 11:46:00,
2013-07-30 07:51:00,62.2,27.0,30.11,North,353,0.0,0.0,26,0.00,,BKN026,0.00,VWS V14.01,2013-07-30 11:51:00,
2013-07-30 07:56:00,62.2,27.0,30.11,North,353,0.0,0.0,26,0.00,,BKN026,0.00,VWS V14.01,2013-07-30 11:56:00,
2013-07-30 08:01:00,62.2,27.0,30.11,North,353,0.0,0.0,26,0.00,,CLR,0.00,VWS V14.01,2013-07-30 12:01:00,
2013-07-30 08:06:00,62.2,27.0,30.11,North,353,0.0,0.0,26,0.00,,CLR,0.00,VWS V14.01,2013-07-30 12:06:00,
2013-07-30 08:11:00,62.2,27.0,30.11,North,353,0.0,0.0,26,0.00,,CLR,0.00,VWS V14.01,2013-07-30 12:11:00,
2013-07-30 08:17:00,62.2,27.9,30.11,North,353,0.0,0.0,27,0.00,,CLR,0.00,VWS V14.01,2013-07-30 12:17:00,
2013-07-30 08:22:00,62.2,27.9,30.11,North,353,0.0,0.0,27,0.00,,CLR,0.00,VWS V14.01,2013-07-30 12:22:00,
2013-07-30 08:27:00,62.4,28.0,30.11,North,353,0.0,0.0,27,0.00,,CLR,0.00,VWS V14.01,2013-07-30 12:27:00,
2013-07-30 08:32:00,62.4,28.9,30.11,North,353,0.0,0.0,28,0.00,,CLR,0.00,VWS V14.01,2013-07-30 12:32:00,
2013-07-30 08:37:00,63.0,29.4,30.11,North,353,0.0,0.0,28,0.00,,CLR,0.00,VWS V14.01,2013-07-30 12:37:00,
2013-07-30 08:42:00,63.0,29.4,30.11,North,353,0.0,0.0,28,0.00,,CLR,0.00,VWS V14.01,2013-07-30 12:42:00,
2013-07-30 08:47:00,63.0,29.4,30.11,North,353,0.0,0.0,28,0.00,,CLR,0.00,VWS V14.01,2013-07-30 12:47:00,
2013-07-30 08:52:00,63.1,26.8,30.11,North,353,0.0,0.0,25,0.00,,CLR,0.00,VWS V14.01,2013-07-30 12:52:00,
2013-07-30 08:57:00,63.1,25.8,30.11,North,353,0.0,0.0,24,0.00,,CLR,0.00,VWS V14.01,2013-07-30 12:57:00,
2013-07-30 09:02:00,63.3,25.9,30.11,North,353,0.0,0.0,24,0.00,,CLR,0.00,VWS V14.01,2013-07-30 13:02:00,
2013-07-30 09:07:00,63.3,25.9,30.11,North,353,0.0,0.0,24,0.00,,CLR,0.00,VWS V14.01,2013-07-30 13:07:00,
2013-07-30 09:12:00,64.2,26.7,30.11,North,353,0.0,0.0,24,0.00,,CLR,0.00,VWS V14.01,2013-07-30 13:12:00,
2013-07-30 09:18:00,64.2,26.7,30.11,North,353,0.0,0.0,24,0.00,,CLR,0.00,VWS V14.01,2013-07-30 13:18:00,
2013-07-30 09:23:00,64.8,27.2,30.11,North,353,0.0,0.0,24,0.00,,CLR,0.00,VWS V14.01,2013-07-30 13:23:00,
2013-07-30 09:28:00,64.9,26.3,30.11,North,353,0.0,0.0,23,0.00,,CLR,0.00,VWS V14.01,2013-07-30 13:28:00,
2013-07-30 09:33:00,65.1,27.5,30.11,North,353,0.0,0.0,24,0.00,,CLR,0.00,VWS V14.01,2013-07-30 13:33:00,
2013-07-30 09:38:00,65.7,27.9,30.11,North,353,0.0,0.0,24,0.00,,CLR,0.00,VWS V14.01,2013-07-30 13:38:00,
2013-07-30 09:43:00,65.8,28.1,30.11,North,353,0.0,0.0,24,0.00,,CLR,0.00,VWS V14.01,2013-07-30 13:43:00,
2013-07-30 09:48:00,67.3,28.2,30.11,North,353,0.0,0.0,23,0.00,,CLR,0.00,VWS V14.01,2013-07-30 13:48:00,
2013-07-30 09:53:00,67.5,28.4,30.11,North,353,0.0,0.0,23,0.00,,CLR,0.00,VWS V14.01,2013-07-30 13:53:00,
2013-07-30 09:58:00,67.5,28.4,30.11,North,353,0.0,0.0,23,0.00,,CLR,0.00,VWS V14.01,2013-07-30 13:58:00,
2013-07-30 10:03:00,67.5,28.4,30.11,South,185,4.0,4.0,23,0.00,,CLR,0.00,VWS V14.01,2013-07-30 14:03:00,
2013-07-30 10:08:00,70.7,30.0,30.11,SSE,156,2.2,2.2,22,0.00,,CLR,0.00,VWS V14.01,2013-07-30 14:08:00,
2013-07-30 10:13:00,71.6,27.2,30.11,South,176,2.2,2.2,19,0.00,,CLR,0.00,VWS V14.01,2013-07-30 14:13:00,
2013-07-30 10:19:00,72.1,27.6,30.11,South,176,2.2,2.2,19,0.00,,CLR,0.00,VWS V14.01,2013-07-30 14:19:00,
2013-07-30 10:24:00,73.8,27.6,30.11,South,176,2.2,2.2,18,0.00,,CLR,0.00,VWS V14.01,2013-07-30 14:24:00,
2013-07-30 10:29:00,74.1,27.9,30.11,SW,214,0.0,0.0,18,0.00,,CLR,0.00,VWS V14.01,2013-07-30 14:29:00,
2013-07-30 10:34:00,77.0,25.9,30.11,SW,220,2.2,2.2,15,0.00,,CLR,0.00,VWS V14.01,2013-07-30 14:34:00,
2013-07-30 10:39:00,79.0,27.4,30.11,SW,222,0.0,0.0,15,0.00,,CLR,0.00,VWS V14.01,2013-07-30 14:39:00,
2013-07-30 10:44:00,80.2,28.4,30.11,SW,222,0.0,0.0,15,0.00,,CLR,0.00,VWS V14.01,2013-07-30 14:44:00,
2013-07-30 10:49:00,81.3,27.6,30.11,WSW,253,0.0,0.0,14,0.00,,CLR,0.00,VWS V14.01,2013-07-30 14:49:00,
2013-07-30 10:54:00,81.7,27.9,30.11,WSW,257,2.2,2.2,14,0.00,,CLR,0.00,VWS V14.01,2013-07-30 14:54:00,
2013-07-30 10:59:00,82.2,28.3,30.11,SW,231,4.0,4.0,14,0.00,,CLR,0.00,VWS V14.01,2013-07-30 14:59:00,
2013-07-30 11:04:00,83.3,29.2,30.11,West,272,0.0,2.2,14,0.00,,CLR,0.00,VWS V14.01,2013-07-30 15:04:00,
2013-07-30 11:09:00,83.5,29.3,30.11,South,187,0.0,2.2,14,0.00,,CLR,0.00,VWS V14.01,2013-07-30 15:09:00,
2013-07-30 11:15:00,84.7,28.5,30.11,South,169,0.0,0.0,13,0.00,,CLR,0.00,VWS V14.01,2013-07-30 15:15:00,
2013-07-30 11:20:00,86.4,29.8,30.11,South,169,0.0,0.0,13,0.00,,CLR,0.00,VWS V14.01,2013-07-30 15:20:00,
2013-07-30 11:25:00,86.7,30.0,30.11,South,169,0.0,0.0,13,0.00,,CLR,0.00,VWS V14.01,2013-07-30 15:25:00,
2013-07-30 11:30:00,85.6,29.2,30.11,SSW,200,2.7,2.7,13,0.00,,CLR,0.00,VWS V14.01,2013-07-30 15:30:00,
2013-07-30 11:35:00,85.3,28.9,30.08,SW,233,2.2,2.2,13,0.00,,CLR,0.00,VWS V14.01,2013-07-30 15:35:00,
2013-07-30 11:40:00,82.8,28.8,30.08,West,260,2.7,2.7,14,0.00,,CLR,0.00,VWS V14.01,2013-07-30 15:40:00,
2013-07-30 11:45:00,82.9,28.9,30.08,NW,310,2.2,3.1,14,0.00,,CLR,0.00,VWS V14.01,2013-07-30 15:45:00,
2013-07-30 11:50:00,84.0,29.8,30.08,WNW,292,2.2,5.4,14,0.00,,CLR,0.00,VWS V14.01,2013-07-30 15:50:00,
2013-07-30 11:55:00,84.7,28.5,30.11,WSW,250,0.0,0.0,13,0.00,,CLR,0.00,VWS V14.01,2013-07-30 15:55:00,
2013-07-30 12:00:00,85.5,29.1,30.11,SSE,156,2.2,2.2,13,0.00,,CLR,0.00,VWS V14.01,2013-07-30 16:00:00,
2013-07-30 12:05:00,86.2,29.6,30.11,WNW,288,2.7,3.1,13,0.00,,SCT027,0.00,VWS V14.01,2013-07-30 16:05:00,
2013-07-30 12:10:00,86.5,29.9,30.11,SSW,212,0.0,5.8,13,0.00,,SCT027,0.00,VWS V14.01,2013-07-30 16:10:00,
2013-07-30 12:15:00,87.8,30.9,30.11,West,259,2.2,2.2,13,0.00,,SCT027,0.00,VWS V14.01,2013-07-30 16:15:00,
2013-07-30 12:20:00,84.7,28.5,30.11,NE,50,2.7,2.7,13,0.00,,SCT027,0.00,VWS V14.01,2013-07-30 16:20:00,
2013-07-30 12:25:00,84.9,28.6,30.11,SSW,200,5.4,5.4,13,0.00,,SCT027,0.00,VWS V14.01,2013-07-30 16:25:00,
2013-07-30 12:30:00,85.5,29.1,30.11,SW,223,4.0,4.0,13,0.00,,SCT027,0.00,VWS V14.01,2013-07-30 16:30:00,
2013-07-30 12:35:00,86.2,29.6,30.11,SW,227,2.7,2.7,13,0.00,,SCT027,0.00,VWS V14.01,2013-07-30 16:35:00,
2013-07-30 12:40:00,86.9,30.2,30.11,WNW,295,5.8,5.8,13,0.00,,SCT027,0.00,VWS V14.01,2013-07-30 16:40:00,
2013-07-30 12:46:00,88.7,31.6,30.11,SSE,157,4.0,4.0,13,0.00,,SCT027,0.00,VWS V14.01,2013-07-30 16:46:00,
2013-07-30 12:51:00,89.2,32.0,30.11,ESE,115,0.0,2.2,13,0.00,,SCT027,0.00,VWS V14.01,2013-07-30 16:51:00,
2013-07-30 12:56:00,89.1,31.9,30.11,SSE,157,2.7,2.7,13,0.00,,SCT027,0.00,VWS V14.01,2013-07-30 16:56:00,
2013-07-30 13:01:00,89.1,31.9,30.11,SW,224,2.2,2.2,13,0.00,,SCT027,0.00,VWS V14.01,2013-07-30 17:01:00,
2013-07-30 13:06:00,86.0,29.5,30.11,SSE,160,3.1,3.1,13,0.00,,SCT027,0.00,VWS V14.01,2013-07-30 17:06:00,
2013-07-30 13:11:00,86.0,29.5,30.11,WSW,253,3.6,3.6,13,0.00,,SCT027,0.00,VWS V14.01,2013-07-30 17:11:00,
2013-07-30 13:17:00,86.0,29.5,30.11,SSE,149,2.2,2.2,13,0.00,,SCT027,0.00,VWS V14.01,2013-07-30 17:17:00,
2013-07-30 13:22:00,86.0,29.5,30.11,SW,218,5.8,5.8,13,0.00,,SCT027,0.00,VWS V14.01,2013-07-30 17:22:00,
2013-07-30 13:27:00,86.0,29.5,30.11,SSE,161,3.6,3.6,13,0.00,,SCT027,0.00,VWS V14.01,2013-07-30 17:27:00,
2013-07-30 13:32:00,86.0,29.5,30.11,SW,222,4.0,4.0,13,0.00,,SCT027,0.00,VWS V14.01,2013-07-30 17:32:00,
2013-07-30 13:37:00,83.7,29.5,30.08,SW,217,2.2,2.2,14,0.00,,SCT027,0.00,VWS V14.01,2013-07-30 17:37:00,
2013-07-30 13:42:00,83.7,29.5,30.08,SW,230,2.7,2.7,14,0.00,,SCT027,0.00,VWS V14.01,2013-07-30 17:42:00,
2013-07-30 13:47:00,83.7,29.5,30.08,West,281,2.2,3.6,14,0.00,,SCT027,0.00,VWS V14.01,2013-07-30 17:47:00,
2013-07-30 13:52:00,83.7,29.5,30.08,SW,232,3.1,3.1,14,0.00,,SCT027,0.00,VWS V14.01,2013-07-30 17:52:00,
2013-07-30 13:57:00,83.7,29.5,30.08,SW,230,3.1,3.1,14,0.00,,SCT027,0.00,VWS V14.01,2013-07-30 17:57:00,
2013-07-30 14:02:00,83.7,29.5,30.08,South,181,2.7,3.1,14,0.00,,CLR,0.00,VWS V14.01,2013-07-30 18:02:00,
2013-07-30 14:07:00,88.7,31.6,30.08,WSW,250,3.1,3.1,13,0.00,,CLR,0.00,VWS V14.01,2013-07-30 18:07:00,
2013-07-30 14:12:00,88.7,31.6,30.08,SSW,195,2.7,3.6,13,0.00,,CLR,0.00,VWS V14.01,2013-07-30 18:12:00,
2013-07-30 14:17:00,89.6,30.3,30.08,WNW,303,3.6,3.6,12,0.00,,CLR,0.00,VWS V14.01,2013-07-30 18:17:00,
2013-07-30 14:22:00,89.6,30.3,30.08,WSW,258,3.1,3.6,12,0.00,,CLR,0.00,VWS V14.01,2013-07-30 18:22:00,
2013-07-30 14:27:00,89.6,30.3,30.08,West,266,2.2,2.2,12,0.00,,CLR,0.00,VWS V14.01,2013-07-30 18:27:00,
2013-07-30 14:32:00,89.6,30.3,30.08,SSW,200,2.2,2.2,12,0.00,,CLR,0.00,VWS V14.01,2013-07-30 18:32:00,
2013-07-30 14:37:00,89.6,30.3,30.08,South,190,2.2,2.2,12,0.00,,CLR,0.00,VWS V14.01,2013-07-30 18:37:00,
2013-07-30 14:43:00,89.6,30.3,30.08,SSE,167,2.7,3.1,12,0.00,,CLR,0.00,VWS V14.01,2013-07-30 18:43:00,
2013-07-30 14:48:00,89.6,30.3,30.08,SSW,201,0.0,0.0,12,0.00,,CLR,0.00,VWS V14.01,2013-07-30 18:48:00,
2013-07-30 14:53:00,89.6,30.3,30.08,SSW,206,0.0,0.0,12,0.00,,CLR,0.00,VWS V14.01,2013-07-30 18:53:00,
2013-07-30 14:58:00,89.6,30.3,30.08,West,267,3.1,3.1,12,0.00,,CLR,0.00,VWS V14.01,2013-07-30 18:58:00,
2013-07-30 15:03:00,82.2,28.3,30.08,West,267,0.0,0.0,14,0.00,,SCT035,0.00,VWS V14.01,2013-07-30 19:03:00,
2013-07-30 15:08:00,82.2,28.3,30.08,South,180,2.2,2.2,14,0.00,,SCT035,0.00,VWS V14.01,2013-07-30 19:08:00,
2013-07-30 15:13:00,82.2,28.3,30.08,SSW,204,0.0,0.0,14,0.00,,SCT035,0.00,VWS V14.01,2013-07-30 19:13:00,
2013-07-30 15:18:00,82.2,28.3,30.08,West,280,3.1,3.1,14,0.00,,SCT035,0.00,VWS V14.01,2013-07-30 19:18:00,
2013-07-30 15:23:00,82.2,28.3,30.08,West,259,2.7,2.7,14,0.00,,SCT035,0.00,VWS V14.01,2013-07-30 19:23:00,
2013-07-30 15:28:00,82.2,28.3,30.08,West,266,2.7,2.7,14,0.00,,SCT035,0.00,VWS V14.01,2013-07-30 19:28:00,
2013-07-30 15:34:00,82.2,28.3,30.08,SSE,147,4.0,4.0,14,0.00,,SCT035,0.00,VWS V14.01,2013-07-30 19:34:00,
2013-07-30 15:39:00,82.2,28.3,30.08,SSE,161,2.2,2.2,14,0.00,,SCT035,0.00,VWS V14.01,2013-07-30 19:39:00,
2013-07-30 15:44:00,82.2,28.3,30.08,WNW,286,2.2,2.2,14,0.00,,SCT035,0.00,VWS V14.01,2013-07-30 19:44:00,
2013-07-30 15:49:00,82.2,28.3,30.08,SSE,164,0.0,2.7,14,0.00,,SCT035,0.00,VWS V14.01,2013-07-30 19:49:00,
2013-07-30 15:54:00,82.2,28.3,30.08,WSW,252,0.0,2.7,14,0.00,,SCT035,0.00,VWS V14.01,2013-07-30 19:54:00,
2013-07-30 15:59:00,82.2,28.3,30.08,WSW,242,2.7,2.7,14,0.00,,SCT035,0.00,VWS V14.01,2013-07-30 19:59:00,
2013-07-30 16:04:00,82.2,28.3,30.08,West,278,2.7,2.7,14,0.00,,BKN034,0.00,VWS V14.01,2013-07-30 20:04:00,
2013-07-30 16:09:00,82.2,28.3,30.08,SSW,202,2.7,2.7,14,0.00,,BKN034,0.00,VWS V14.01,2013-07-30 20:09:00,
2013-07-30 16:14:00,82.2,28.3,30.08,WSW,237,0.0,0.0,14,0.00,,BKN034,0.00,VWS V14.01,2013-07-30 20:14:00,
2013-07-30 16:19:00,82.2,28.3,30.08,ENE,70,0.0,0.0,14,0.00,,BKN034,0.00,VWS V14.01,2013-07-30 20:19:00,
2013-07-30 16:24:00,82.2,28.3,30.08,SW,234,2.7,2.7,14,0.00,,BKN034,0.00,VWS V14.01,2013-07-30 20:24:00,
2013-07-30 16:29:00,82.2,28.3,30.08,SW,214,3.1,3.1,14,0.00,,BKN034,0.00,VWS V14.01,2013-07-30 20:29:00,
2013-07-30 16:34:00,82.2,28.3,30.08,SW,214,0.0,0.0,14,0.00,,BKN034,0.00,VWS V14.01,2013-07-30 20:34:00,
2013-07-30 16:39:00,82.2,28.3,30.08,SW,227,0.0,0.0,14,0.00,,BKN034,0.00,VWS V14.01,2013-07-30 20:39:00,
2013-07-30 16:45:00,82.2,28.3,30.08,SE,125,2.7,2.7,14,0.00,,BKN034,0.00,VWS V14.01,2013-07-30 20:45:00,
2013-07-30 16:50:00,81.3,27.6,30.08,ESE,119,2.2,3.6,14,0.00,,BKN034,0.00,VWS V14.01,2013-07-30 20:50:00,
2013-07-30 16:55:00,81.3,27.6,30.08,ESE,119,0.0,0.0,14,0.00,,BKN034,0.00,VWS V14.01,2013-07-30 20:55:00,
2013-07-30 17:00:00,83.7,29.5,30.08,ESE,109,0.0,2.7,14,0.00,,BKN034,0.00,VWS V14.01,2013-07-30 21:00:00,
2013-07-30 17:05:00,83.7,29.5,30.08,WSW,257,0.0,0.0,14,0.00,,BKN048,0.00,VWS V14.01,2013-07-30 21:05:00,
2013-07-30 17:10:00,83.7,29.5,30.08,SSW,193,2.7,2.7,14,0.00,,BKN048,0.00,VWS V14.01,2013-07-30 21:10:00,
2013-07-30 17:15:00,83.7,29.5,30.08,SSW,206,0.0,0.0,14,0.00,,BKN048,0.00,VWS V14.01,2013-07-30 21:15:00,
2013-07-30 17:20:00,83.7,29.5,30.08,ESE,108,2.2,2.2,14,0.00,,BKN048,0.00,VWS V14.01,2013-07-30 21:20:00,
2013-07-30 17:25:00,83.7,29.5,30.08,West,261,0.0,0.0,14,0.00,,BKN048,0.00,VWS V14.01,2013-07-30 21:25:00,
2013-07-30 17:30:00,83.7,29.5,30.08,SW,220,3.6,3.6,14,0.00,,BKN048,0.00,VWS V14.01,2013-07-30 21:30:00,
2013-07-30 17:35:00,83.7,29.5,30.08,SSE,151,2.2,2.7,14,0.00,,BKN048,0.00,VWS V14.01,2013-07-30 21:35:00,
2013-07-30 17:41:00,87.8,30.9,30.08,West,267,3.6,3.6,13,0.00,,BKN048,0.00,VWS V14.01,2013-07-30 21:41:00,
2013-07-30 17:46:00,87.8,30.9,30.08,SSW,199,0.0,0.0,13,0.00,,BKN048,0.00,VWS V14.01,2013-07-30 21:46:00,
2013-07-30 17:51:00,87.8,30.9,30.08,West,260,0.0,0.0,13,0.00,,BKN048,0.00,VWS V14.01,2013-07-30 21:51:00,
2013-07-30 17:56:00,87.8,30.9,30.08,South,177,2.7,2.7,13,0.00,,BKN048,0.00,VWS V14.01,2013-07-30 21:56:00,
2013-07-30 18:01:00,87.8,30.9,30.08,SW,230,2.7,2.7,13,0.00,,SCT036,0.00,VWS V14.01,2013-07-30 22:01:00,
2013-07-30 18:07:00,87.8,30.9,30.08,WSW,258,2.7,2.7,13,0.00,,SCT036,0.00,VWS V14.01,2013-07-30 22:07:00,
2013-07-30 18:12:00,87.8,30.9,30.08,West,271,0.0,0.0,13,0.00,,SCT036,0.00,VWS V14.01,2013-07-30 22:12:00,
2013-07-30 18:17:00,87.8,30.9,30.08,SSW,205,0.0,2.7,13,0.00,,SCT036,0.00,VWS V14.01,2013-07-30 22:17:00,
2013-07-30 18:22:00,87.8,30.9,30.08,SE,137,2.2,2.2,13,0.00,,SCT036,0.00,VWS V14.01,2013-07-30 22:22:00,
2013-07-30 18:27:00,87.8,30.9,30.08,South,183,2.2,3.6,13,0.00,,SCT036,0.00,VWS V14.01,2013-07-30 22:27:00,
2013-07-30 18:32:00,87.8,30.9,30.08,SSW,194,3.6,3.6,13,0.00,,SCT036,0.00,VWS V14.01,2013-07-30 22:32:00,
2013-07-30 18:37:00,87.8,30.9,30.08,East,86,2.7,2.7,13,0.00,,SCT036,0.00,VWS V14.01,2013-07-30 22:37:00,
2013-07-30 18:42:00,87.8,30.9,30.08,ESE,120,0.0,0.0,13,0.00,,SCT036,0.00,VWS V14.01,2013-07-30 22:42:00,
2013-07-30 18:47:00,87.8,30.9,30.08,ESE,114,0.0,0.0,13,0.00,,SCT036,0.00,VWS V14.01,2013-07-30 22:47:00,
2013-07-30 18:52:00,87.8,30.9,30.08,SSW,209,0.0,0.0,13,0.00,,SCT036,0.00,VWS V14.01,2013-07-30 22:52:00,
2013-07-30 18:57:00,87.8,30.9,30.08,South,188,2.2,2.2,13,0.00,,SCT036,0.00,VWS V14.01,2013-07-30 22:57:00,
2013-07-30 19:02:00,87.8,30.9,30.08,South,188,0.0,0.0,13,0.00,,SCT036,0.00,VWS V14.01,2013-07-30 23:02:00,
2013-07-30 19:07:00,87.8,30.9,30.08,South,190,0.0,0.0,13,0.00,,SCT036,0.00,VWS V14.01,2013-07-30 23:07:00,
2013-07-30 19:12:00,87.8,30.9,30.08,South,190,2.7,2.7,13,0.00,,SCT036,0.00,VWS V14.01,2013-07-30 23:12:00,
2013-07-30 19:17:00,87.8,30.9,30.08,South,190,2.7,2.7,13,0.00,,SCT036,0.00,VWS V14.01,2013-07-30 23:17:00,
2013-07-30 19:22:00,87.8,30.9,30.08,WSW,253,2.7,2.7,13,0.00,,SCT036,0.00,VWS V14.01,2013-07-30 23:22:00,
2013-07-30 19:28:00,87.8,30.9,30.08,SE,143,0.0,0.0,13,0.00,,SCT036,0.00,VWS V14.01,2013-07-30 23:28:00,
2013-07-30 19:33:00,87.8,30.9,30.08,WSW,248,0.0,0.0,13,0.00,,SCT036,0.00,VWS V14.01,2013-07-30 23:33:00,
2013-07-30 19:38:00,87.8,30.9,30.08,WSW,245,0.0,0.0,13,0.00,,SCT036,0.00,VWS V14.01,2013-07-30 23:38:00,
2013-07-30 19:43:00,71.4,27.0,30.08,WSW,245,0.0,2.2,19,0.00,,SCT036,0.00,VWS V14.01,2013-07-30 23:43:00,
2013-07-30 19:48:00,71.4,27.0,30.08,WSW,245,0.0,0.0,19,0.00,,SCT036,0.00,VWS V14.01,2013-07-30 23:48:00,
2013-07-30 19:53:00,71.4,27.0,30.08,SE,130,0.0,0.0,19,0.00,,SCT036,0.00,VWS V14.01,2013-07-30 23:53:00,
2013-07-30 19:54:00,71.1,26.8,30.08,SE,130,0.0,0.0,19,0.00,,SCT036,0.00,VWS V14.01,2013-07-30 23:54:00,
2013-07-30 19:59:00,71.1,26.8,30.08,SE,130,0.0,0.0,19,0.00,,SCT036,0.00,VWS V14.01,2013-07-30 23:59:00,
2013-07-30 20:04:00,71.1,26.8,30.08,SE,130,0.0,0.0,19,0.00,,OVC026,0.00,VWS V14.01,2013-07-31 00:04:00,
2013-07-30 20:10:00,71.1,26.8,30.08,SE,130,0.0,0.0,19,0.00,,OVC026,0.00,VWS V14.01,2013-07-31 00:10:00,
2013-07-30 20:15:00,71.1,26.8,30.08,SE,130,0.0,0.0,19,0.00,,OVC026,0.00,VWS V14.01,2013-07-31 00:15:00,
2013-07-30 20:20:00,71.1,26.8,30.08,SE,130,0.0,0.0,19,0.00,,OVC026,0.00,VWS V14.01,2013-07-31 00:20:00,
2013-07-30 20:25:00,71.1,26.8,30.08,SE,130,0.0,0.0,19,0.00,,OVC026,0.00,VWS V14.01,2013-07-31 00:25:00,
2013-07-30 20:30:00,71.1,26.8,30.08,SE,130,0.0,0.0,19,0.00,,OVC026,0.00,VWS V14.01,2013-07-31 00:30:00,
2013-07-30 20:35:00,69.6,26.8,30.08,SE,130,0.0,0.0,20,0.00,,OVC026,0.00,VWS V14.01,2013-07-31 00:35:00,
2013-07-30 20:40:00,69.6,26.8,30.08,SE,130,2.2,2.2,20,0.00,,OVC026,0.00,VWS V14.01,2013-07-31 00:40:00,
2013-07-30 20:45:00,69.6,26.8,30.08,SE,130,0.0,0.0,20,0.00,,OVC026,0.00,VWS V14.01,2013-07-31 00:45:00,
2013-07-30 20:50:00,69.6,26.8,30.08,SE,130,0.0,0.0,20,0.00,,OVC026,0.00,VWS V14.01,2013-07-31 00:50:00,
2013-07-30 20:55:00,69.6,26.8,30.08,SE,130,0.0,0.0,20,0.00,,OVC026,0.00,VWS V14.01,2013-07-31 00:55:00,
2013-07-30 21:00:00,69.6,26.8,30.08,SE,130,0.0,0.0,20,0.00,,BKN110,0.00,VWS V14.01,2013-07-31 01:00:00,
2013-07-30 21:06:00,69.6,26.8,30.08,SE,130,0.0,0.0,20,0.00,,BKN110,0.00,VWS V14.01,2013-07-31 01:06:00,
2013-07-30 21:11:00,69.6,26.8,30.08,SE,130,0.0,0.0,20,0.00,,BKN110,0.00,VWS V14.01,2013-07-31 01:11:00,
2013-07-30 21:16:00,69.6,26.8,30.08,SE,130,0.0,0.0,20,0.00,,BKN110,0.00,VWS V14.01,2013-07-31 01:16:00,
2013-07-30 21:21:00,69.6,26.8,30.08,SE,130,0.0,0.0,20,0.00,,BKN110,0.00,VWS V14.01,2013-07-31 01:21:00,
2013-07-30 21:26:00,69.6,26.8,30.08,SE,130,0.0,0.0,20,0.00,,BKN110,0.00,VWS V14.01,2013-07-31 01:26:00,
2013-07-30 21:31:00,69.6,26.8,30.08,SE,130,0.0,0.0,20,0.00,,BKN110,0.00,VWS V14.01,2013-07-31 01:31:00,
2013-07-30 21:36:00,69.6,26.8,30.08,SE,130,0.0,0.0,20,0.00,,BKN110,0.00,VWS V14.01,2013-07-31 01:36:00,
2013-07-30 21:41:00,69.6,26.8,30.08,SE,130,0.0,0.0,20,0.00,,BKN110,0.00,VWS V14.01,2013-07-31 01:41:00,
2013-07-30 21:46:00,69.6,26.8,30.08,SE,130,0.0,0.0,20,0.00,,BKN110,0.00,VWS V14.01,2013-07-31 01:46:00,
2013-07-30 21:51:00,69.6,26.8,30.08,SE,130,0.0,0.0,20,0.00,,BKN110,0.00,VWS V14.01,2013-07-31 01:51:00,
2013-07-30 21:56:00,69.6,26.8,30.08,SE,130,0.0,0.0,20,0.00,,BKN110,0.00,VWS V14.01,2013-07-31 01:56:00,
2013-07-30 22:01:00,69.6,26.8,30.08,SE,130,0.0,0.0,20,0.00,,FEW080,0.00,VWS V14.01,2013-07-31 02:01:00,
2013-07-30 22:06:00,69.6,26.8,30.11,SE,130,0.0,0.0,20,0.00,,FEW080,0.00,VWS V14.01,2013-07-31 02:06:00,
2013-07-30 22:11:00,69.6,26.8,30.11,SE,130,0.0,0.0,20,0.00,,FEW080,0.00,VWS V14.01,2013-07-31 02:11:00,
2013-07-30 22:16:00,69.6,26.8,30.11,SE,130,0.0,0.0,20,0.00,,FEW080,0.00,VWS V14.01,2013-07-31 02:16:00,
2013-07-30 22:21:00,69.6,26.8,30.11,SE,130,0.0,0.0,20,0.00,,FEW080,0.00,VWS V14.01,2013-07-31 02:21:00,
2013-07-30 22:26:00,69.6,26.8,30.11,SE,130,2.7,2.7,20,0.00,,FEW080,0.00,VWS V14.01,2013-07-31 02:26:00,
2013-07-30 22:32:00,69.6,26.8,30.11,SE,130,0.0,2.7,20,0.00,,FEW080,0.00,VWS V14.01,2013-07-31 02:32:00,
2013-07-30 22:37:00,69.6,26.8,30.11,SE,130,0.0,0.0,20,0.00,,FEW080,0.00,VWS V14.01,2013-07-31 02:37:00,
2013-07-30 22:42:00,69.6,26.8,30.11,SE,130,2.2,2.2,20,0.00,,FEW080,0.00,VWS V14.01,2013-07-31 02:42:00,
2013-07-30 22:47:00,69.6,26.8,30.11,SE,130,2.2,2.2,20,0.00,,FEW080,0.00,VWS V14.01,2013-07-31 02:47:00,
2013-07-30 22:52:00,69.6,26.8,30.11,SE,130,2.2,2.2,20,0.00,,FEW080,0.00,VWS V14.01,2013-07-31 02:52:00,
2013-07-30 22:57:00,69.6,26.8,30.11,SE,130,0.0,0.0,20,0.00,,FEW080,0.00,VWS V14.01,2013-07-31 02:57:00,
2013-07-30 23:02:00,69.6,26.8,30.11,SE,130,0.0,0.0,20,0.00,,FEW032,0.00,VWS V14.01,2013-07-31 03:02:00,
2013-07-30 23:07:00,69.6,26.8,30.11,SE,130,0.0,0.0,20,0.00,,FEW032,0.00,VWS V14.01,2013-07-31 03:07:00,
2013-07-30 23:12:00,69.6,26.8,30.11,SE,130,0.0,0.0,20,0.00,,FEW032,0.00,VWS V14.01,2013-07-31 03:12:00,
2013-07-30 23:17:00,69.6,26.8,30.11,SE,130,2.2,2.2,20,0.00,,FEW032,0.00,VWS V14.01,2013-07-31 03:17:00,
2013-07-30 23:22:00,69.6,26.8,30.11,SE,130,0.0,0.0,20,0.00,,FEW032,0.00,VWS V14.01,2013-07-31 03:22:00,
2013-07-30 23:27:00,69.6,26.8,30.11,SE,130,0.0,0.0,20,0.00,,FEW032,0.00,VWS V14.01,2013-07-31 03:27:00,
2013-07-30 23:32:00,69.6,26.8,30.11,SE,130,0.0,0.0,20,0.00,,FEW032,0.00,VWS V14.01,2013-07-31 03:32:00,
2013-07-30 23:37:00,69.6,26.8,30.11,SE,130,0.0,0.0,20,0.00,,FEW032,0.00,VWS V14.01,2013-07-31 03:37:00,
2013-07-30 23:43:00,69.6,26.8,30.11,SE,130,0.0,0.0,20,0.00,,FEW032,0.00,VWS V14.01,2013-07-31 03:43:00,
2013-07-30 23:47:00,69.6,26.8,30.11,SE,130,0.0,0.0,20,0.00,,FEW032,0.00,VWS V14.01,2013-07-31 03:47:00,
2013-07-30 23:52:00,69.6,26.8,30.11,SE,130,0.0,0.0,20,0.00,,FEW032,0.00,VWS V14.01,2013-07-31 03:52:00,
2013-07-30 23:58:00,69.6,26.8,30.11,SE,130,0.0,0.0,20,0.00,,FEW032,0.00,VWS V14.01,2013-07-31 03:58:00,